Main page
METAR-TAF:

METAR-TAF

Airports :

Don Mueang International Airport

Bangkok, Thailand

latitude: 13-54-45N, longitude: 100-36-24E, elevation: 4 m

Current weather observation

The report was made 30 minutes ago, at 20:00 UTC
Wind 4 kt from the North/Northwest
Temperature 25°C
Humidity 74%
Pressure 1011 hPa
Visibility 10 km or more
no clouds below 1500 m and no cumulonimbus

METAR: VTBD 152000Z 34004KT CAVOK 25/20 Q1011 NOSIG

Time: 03:30 (20:30 UTC)

Forecast

The report was made 3 hours and 30 minutes ago, at 17:00 UTC
Forecast valid from 15 at 18 UTC to 16 at 24 UTC
Wind 5 kt from the North
Visibility: 9000 m
Few clouds at a height of 3000 ft
Becoming
from 16 at 04 UTC to 16 at 06 UTC
Wind 8 kt from the East/Northeast
Becoming
from 16 at 20 UTC to 16 at 22 UTC
Wind 5 kt from the North/Northwest

TAF: VTBD 151700Z 1518/1624 01005KT 9000 FEW030 BECMG 1604/1606 07008KT BECMG 1620/1622 33005KT

Weather observations and forecasts of more than 4000 airports (METAR and TAF reports).

The available stations are represented by yellow and red dots on the map.

Hover mouse over dot to see the name of the station.

Then click to see weather observations and forecasts.

To change the map : click on the green buttons with a black cross to zoom in, on the green button with a dash to zoom out, or on the green arrows for adjacent maps.


METAR-TAF: